Aérodrome :
LOGIN :

S'inscrire | Disclaimer

   EN    FR    IT 

 










Légende :    VFR   VFR Marginal   IFR   IFR Intensif   IFR Très Intensif
Visi : 
Plafond : 
>= 8 km
>= 3000ft
5 à 8 km
1000 à 3000 ft
1500m à 5 km
500 à 1000 ft
800 à 1500m
200 à 500 ft
< 800m
< 200 ft
Symboles :   Orages  Brouillard  Fortes neiges  Fortes précipitations  Vent > 20 kt
SIGMETs :   Divers  Orages  Givrage  Turbulence  Onde Orograph.  Cendres Volcan.







- Altitude de l'aérodrome : 302 ft
- Code IATA : CGN


EDDK - Cologne Bonn

DERNIER METAR :
  • 171520Z 13009KT 090V170 CAVOK 26/12 Q1018 NOSIG

METARs EXPIRÉS :
  • 171450Z 14007KT 090V190 CAVOK 27/10 Q1018 NOSIG
  • 171420Z 18005KT 150V230 CAVOK 27/12 Q1018 NOSIG
  • 171350Z 13005KT 060V200 CAVOK 27/11 Q1018 NOSIG
  • 171320Z 15005KT 110V190 CAVOK 25/12 Q1019 NOSIG
  • 171250Z 15005KT 110V220 CAVOK 26/12 Q1019 NOSIG

TAF TAF EDDK
Valide du 17 à 12h jusqu'au 18 à 18h UTC


171100Z 1712/1818 VRB02KT CAVOK
TEMPO 1712/1718 12006KT
BECMG 1807/1809 14006KT
Pas de NOTAMs connus pour ce terrain.



MET'MAP, la Météo Aéronautique d'un coup d'oeil ! - Copyright ORBIFLY Décembre 2007 - Disclaimer

ORBIFLY MET'MAP TEAM :

Programmation & Développement : Alexandra Zaïnal
Conception & Développement : Baudouin d'Aumeries
Co-Programmation & Développement : Marc-Olivier Méhu
Soutien technique & logistique : Manuel Goepfert

Contact : metmap@orbifly.com




SOURCES & CREDITS :

   NOAA